createdAt,value
2018-02-14T00:00:52.427Z,0.08
2018-02-14T00:01:52.438Z,0.06
2018-02-14T00:02:52.462Z,0.05
2018-02-14T00:03:52.467Z,0.02
2018-02-14T00:04:52.441Z,-0.02
2018-02-14T00:05:52.429Z,-0.02
2018-02-14T00:06:52.436Z,-0.04
2018-02-14T00:07:52.466Z,-0.05
2018-02-14T00:08:52.483Z,-0.08
2018-02-14T00:09:52.454Z,-0.07
2018-02-14T00:10:52.457Z,-0.07
2018-02-14T00:11:52.458Z,-0.07
2018-02-14T00:12:52.451Z,-0.05
2018-02-14T00:13:52.482Z,-0.02
2018-02-14T00:14:52.468Z,-0.04
2018-02-14T00:15:52.459Z,-0.01
2018-02-14T00:16:52.468Z,-0.02
2018-02-14T00:17:52.475Z,-0.04
2018-02-14T00:18:52.862Z,-0.05
2018-02-14T00:19:52.461Z,-0.08
2018-02-14T00:20:52.479Z,-0.05
2018-02-14T00:21:52.478Z,-0.08
2018-02-14T00:22:52.469Z,-0.08
2018-02-14T00:23:52.500Z,-0.08
2018-02-14T00:24:52.523Z,-0.07
2018-02-14T00:25:52.490Z,-0.04
2018-02-14T00:26:52.499Z,0.03
2018-02-14T00:27:52.498Z,0.05
2018-02-14T00:28:52.510Z,0.02
2018-02-14T00:29:52.491Z,-0.01
2018-02-14T00:30:52.494Z,-0.07
2018-02-14T00:31:52.503Z,-0.04
2018-02-14T00:32:52.513Z,-0.08
2018-02-14T00:33:52.534Z,-0.02
2018-02-14T00:34:52.525Z,0.01
2018-02-14T00:35:52.503Z,0.02
2018-02-14T00:36:52.515Z,0.02
2018-02-14T00:37:52.514Z,-0.01
2018-02-14T00:38:52.548Z,-0.02
2018-02-14T00:39:52.527Z,-0.04
2018-02-14T00:40:52.521Z,-0.05
2018-02-14T00:41:52.528Z,-0.02
2018-02-14T00:42:52.541Z,-0.02
2018-02-14T00:43:52.520Z,-0.01
2018-02-14T00:44:52.550Z,-0.02
2018-02-14T00:45:52.522Z,0.01
2018-02-14T00:46:52.531Z,-0.01
2018-02-14T00:47:52.530Z,-0.04
2018-02-14T00:48:52.542Z,-0.05
2018-02-14T00:49:52.521Z,-0.04
2018-02-14T00:50:52.527Z,-0.07
2018-02-14T00:51:52.541Z,-0.08
2018-02-14T00:52:52.532Z,-0.02
2018-02-14T00:53:52.580Z,-0.02
2018-02-14T00:54:52.547Z,-0.04
2018-02-14T00:55:52.542Z,-0.02
2018-02-14T00:56:52.555Z,-0.04
2018-02-14T00:57:52.550Z,-0.04
2018-02-14T00:58:52.549Z,-0.02
2018-02-14T00:59:52.561Z,-0.08
2018-02-14T01:00:52.564Z,-0.08
2018-02-14T01:01:52.566Z,-0.07
2018-02-14T01:02:52.568Z,-0.05
2018-02-14T01:03:52.580Z,-0.11
2018-02-14T01:04:52.569Z,-0.09
2018-02-14T01:05:52.578Z,-0.04
2018-02-14T01:06:52.570Z,-0.07
2018-02-14T01:07:52.573Z,-0.05
2018-02-14T01:08:52.616Z,-0.05
2018-02-14T01:09:52.585Z,-0.05
2018-02-14T01:10:52.578Z,-0.02
2018-02-14T01:11:52.586Z,-0.02
2018-02-14T01:12:52.589Z,-0.11
2018-02-14T01:13:52.607Z,-0.11
2018-02-14T01:14:52.614Z,-0.12
2018-02-14T01:15:52.598Z,-0.15
2018-02-14T01:16:52.596Z,-0.15
2018-02-14T01:17:52.712Z,-0.17
2018-02-14T01:18:52.604Z,-0.17
2018-02-14T01:19:52.613Z,-0.19
2018-02-14T01:20:52.614Z,-0.22
2018-02-14T01:21:52.628Z,-0.19
2018-02-14T01:22:52.640Z,-0.19
2018-02-14T01:23:52.658Z,-0.18
2018-02-14T01:24:52.632Z,-0.19
2018-02-14T01:25:52.614Z,-0.21
2018-02-14T01:26:52.623Z,-0.26
2018-02-14T01:27:52.610Z,-0.25
2018-02-14T01:28:52.639Z,-0.22
2018-02-14T01:29:52.621Z,-0.21
2018-02-14T01:30:52.647Z,-0.25
2018-02-14T01:31:52.626Z,-0.26
2018-02-14T01:32:52.620Z,-0.29
2018-02-14T01:33:52.622Z,-0.29
2018-02-14T01:34:52.973Z,-0.3
2018-02-14T01:35:52.640Z,-0.3
2018-02-14T01:36:52.645Z,-0.32
2018-02-14T01:37:52.647Z,-0.32
2018-02-14T01:38:52.642Z,-0.35
2018-02-14T01:39:52.667Z,-0.32
2018-02-14T01:40:52.924Z,-0.29
2018-02-14T01:41:52.654Z,-0.28
2018-02-14T01:42:52.663Z,-0.29
2018-02-14T01:43:52.670Z,-0.28
2018-02-14T01:44:52.675Z,-0.32
2018-02-14T01:45:52.691Z,-0.3
2018-02-14T01:46:52.795Z,-0.33
2018-02-14T01:47:52.668Z,-0.36
2018-02-14T01:48:52.669Z,-0.36
2018-02-14T01:49:52.678Z,-0.42
2018-02-14T01:50:52.684Z,-0.35
2018-02-14T01:51:52.703Z,-0.39
2018-02-14T01:52:52.728Z,-0.45
2018-02-14T01:53:52.693Z,-0.43
2018-02-14T01:54:52.689Z,-0.42
2018-02-14T01:55:52.692Z,-0.39
2018-02-14T01:56:52.722Z,-0.4
2018-02-14T01:57:52.707Z,-0.43
2018-02-14T01:58:52.711Z,-0.47
2018-02-14T01:59:52.697Z,-0.42
2018-02-14T02:00:52.701Z,-0.42
2018-02-14T02:01:52.708Z,-0.46
2018-02-14T02:02:52.736Z,-0.43
2018-02-14T02:03:52.750Z,-0.42
2018-02-14T02:04:52.731Z,-0.4
2018-02-14T02:05:52.723Z,-0.43
2018-02-14T02:06:52.721Z,-0.45
2018-02-14T02:07:52.725Z,-0.45
2018-02-14T02:08:52.862Z,-0.5
2018-02-14T02:09:52.741Z,-0.49
2018-02-14T02:10:52.744Z,-0.45
2018-02-14T02:11:52.744Z,-0.39
2018-02-14T02:12:52.736Z,-0.42
2018-02-14T02:13:52.771Z,-0.45
2018-02-14T02:14:52.745Z,-0.47
2018-02-14T02:15:52.758Z,-0.5
2018-02-14T02:16:52.761Z,-0.5
2018-02-14T02:17:52.765Z,-0.56
2018-02-14T02:18:52.769Z,-0.51
2018-02-14T02:19:52.904Z,-0.53
2018-02-14T02:20:52.788Z,-0.51
2018-02-14T02:21:52.769Z,-0.51
2018-02-14T02:22:52.785Z,-0.43
2018-02-14T02:23:52.783Z,-0.45
2018-02-14T02:24:52.808Z,-0.47
2018-02-14T02:25:52.801Z,-0.46
2018-02-14T02:26:52.817Z,-0.47
2018-02-14T02:27:52.810Z,-0.5
2018-02-14T02:28:52.799Z,-0.53
2018-02-14T02:29:52.804Z,-0.5
2018-02-14T02:30:52.842Z,-0.51
2018-02-14T02:31:52.808Z,-0.53
2018-02-14T02:32:52.818Z,-0.53
2018-02-14T02:33:52.825Z,-0.58
2018-02-14T02:34:52.828Z,-0.54
2018-02-14T02:35:53.004Z,-0.57
2018-02-14T02:36:52.851Z,-0.57
2018-02-14T02:37:52.830Z,-0.58
2018-02-14T02:38:52.832Z,-0.53
2018-02-14T02:39:52.845Z,-0.56
2018-02-14T02:40:52.869Z,-0.58
2018-02-14T02:41:52.834Z,-0.58
2018-02-14T02:42:52.839Z,-0.58
2018-02-14T02:43:52.849Z,-0.56
2018-02-14T02:44:52.846Z,-0.58
2018-02-14T02:45:52.882Z,-0.56
2018-02-14T02:46:52.871Z,-0.63
2018-02-14T02:47:52.850Z,-0.64
2018-02-14T02:48:52.849Z,-0.67
2018-02-14T02:49:52.862Z,-0.67
2018-02-14T02:50:52.881Z,-0.68
2018-02-14T02:51:52.888Z,-0.7
2018-02-14T02:52:52.888Z,-0.68
2018-02-14T02:53:52.884Z,-0.71
2018-02-14T02:54:52.898Z,-0.7
2018-02-14T02:55:52.883Z,-0.68
2018-02-14T02:56:52.868Z,-0.68
2018-02-14T02:57:52.890Z,-0.67
2018-02-14T02:58:52.881Z,-0.68
2018-02-14T02:59:52.882Z,-0.73
2018-02-14T03:00:52.879Z,-0.7
2018-02-14T03:01:53.179Z,-0.74
2018-02-14T03:02:52.894Z,-0.77
2018-02-14T03:03:52.895Z,-0.78
2018-02-14T03:04:52.899Z,-0.78
2018-02-14T03:05:52.910Z,-0.78
2018-02-14T03:06:52.983Z,-0.81
2018-02-14T03:07:52.911Z,-0.82
2018-02-14T03:08:52.899Z,-0.8
2018-02-14T03:09:52.923Z,-0.78
2018-02-14T03:10:52.911Z,-0.75
2018-02-14T03:11:52.915Z,-0.78
2018-02-14T03:12:52.914Z,-0.75
2018-02-14T03:13:52.929Z,-0.77
2018-02-14T03:14:52.939Z,-0.75
2018-02-14T03:15:52.928Z,-0.78
2018-02-14T03:16:52.927Z,-0.77
2018-02-14T03:17:52.934Z,-0.8
2018-02-14T03:18:52.953Z,-0.85
2018-02-14T03:19:52.968Z,-0.82
2018-02-14T03:20:52.939Z,-0.82
2018-02-14T03:21:52.952Z,-0.84
2018-02-14T03:22:52.950Z,-0.85
2018-02-14T03:23:52.949Z,-0.8
2018-02-14T03:24:52.976Z,-0.77
2018-02-14T03:25:52.982Z,-0.8
2018-02-14T03:26:52.953Z,-0.84
2018-02-14T03:27:52.960Z,-0.84
2018-02-14T03:28:52.961Z,-0.84
2018-02-14T03:29:52.980Z,-0.88
2018-02-14T03:30:53.002Z,-0.93
2018-02-14T03:31:52.959Z,-0.95
2018-02-14T03:32:52.980Z,-0.95
2018-02-14T03:33:52.974Z,-0.95
2018-02-14T03:34:52.971Z,-0.98
2018-02-14T03:35:53.005Z,-1.03
2018-02-14T03:36:52.979Z,-1.05
2018-02-14T03:37:52.994Z,-1.09
2018-02-14T03:38:52.993Z,-1.11
2018-02-14T03:39:52.991Z,-1.12
2018-02-14T03:40:53.017Z,-1.07
2018-02-14T03:41:53.021Z,-1.08
2018-02-14T03:42:53.012Z,-1.05
2018-02-14T03:43:53.016Z,-1.08
2018-02-14T03:44:53.017Z,-1.02
2018-02-14T03:45:53.030Z,-1.01
2018-02-14T03:46:53.040Z,-1.02
2018-02-14T03:47:53.053Z,-1.01
2018-02-14T03:48:53.044Z,-0.99
2018-02-14T03:49:53.043Z,-0.99
2018-02-14T03:50:53.043Z,-0.96
2018-02-14T03:51:53.041Z,-0.99
2018-02-14T03:52:53.043Z,-0.98
2018-02-14T03:53:53.049Z,-1.01
2018-02-14T03:54:53.037Z,-1.07
2018-02-14T03:55:53.053Z,-1.07
2018-02-14T03:56:53.070Z,-1.11
2018-02-14T03:57:53.050Z,-1.11
2018-02-14T03:58:53.054Z,-1.15
2018-02-14T03:59:53.049Z,-1.13
2018-02-14T04:00:53.045Z,-1.16
2018-02-14T04:01:53.083Z,-1.16
2018-02-14T04:02:53.053Z,-1.18
2018-02-14T04:03:53.059Z,-1.12
2018-02-14T04:04:53.061Z,-1.18
2018-02-14T04:05:53.088Z,-1.18
2018-02-14T04:06:53.076Z,-1.15
2018-02-14T04:07:53.096Z,-1.19
2018-02-14T04:08:53.088Z,-1.22
2018-02-14T04:09:53.097Z,-1.22
2018-02-14T04:10:53.083Z,-1.19
2018-02-14T04:11:53.454Z,-1.22
2018-02-14T04:12:53.098Z,-1.19
2018-02-14T04:13:53.127Z,-1.15
2018-02-14T04:14:53.105Z,-1.18
2018-02-14T04:15:53.102Z,-1.22
2018-02-14T04:16:53.120Z,-1.2
2018-02-14T04:17:53.129Z,-1.19
2018-02-14T04:18:53.112Z,-1.15
2018-02-14T04:19:53.117Z,-1.19
2018-02-14T04:20:53.107Z,-1.2
2018-02-14T04:21:53.149Z,-1.25
2018-02-14T04:22:53.139Z,-1.25
2018-02-14T04:23:53.121Z,-1.25
2018-02-14T04:24:53.128Z,-1.29
2018-02-14T04:25:53.122Z,-1.29
2018-02-14T04:26:53.120Z,-1.33
2018-02-14T04:27:53.123Z,-1.33
2018-02-14T04:28:53.131Z,-1.35
2018-02-14T04:29:53.140Z,-1.32
2018-02-14T04:30:53.140Z,-1.36
2018-02-14T04:31:53.142Z,-1.35
2018-02-14T04:32:53.167Z,-1.37
2018-02-14T04:33:53.149Z,-1.37
2018-02-14T04:34:53.138Z,-1.36
2018-02-14T04:35:53.147Z,-1.32
2018-02-14T04:36:53.153Z,-1.37
2018-02-14T04:37:53.214Z,-1.41
2018-02-14T04:38:53.175Z,-1.33
2018-02-14T04:39:53.155Z,-1.33
2018-02-14T04:40:53.167Z,-1.27
2018-02-14T04:41:53.160Z,-1.32
2018-02-14T04:44:53.295Z,-1.29
2018-02-14T04:45:53.166Z,-1.27
2018-02-14T04:46:53.174Z,-1.2
2018-02-14T04:47:53.179Z,-1.22
2018-02-14T04:48:53.186Z,-1.26
2018-02-14T04:49:53.235Z,-1.23
2018-02-14T04:50:53.199Z,-1.26
2018-02-14T04:51:53.200Z,-1.26
2018-02-14T04:52:53.215Z,-1.25
2018-02-14T04:53:53.201Z,-1.23
2018-02-14T04:54:53.250Z,-1.23
2018-02-14T04:55:53.209Z,-1.25
2018-02-14T04:56:53.240Z,-1.22
2018-02-14T04:57:53.249Z,-1.26
2018-02-14T04:58:53.220Z,-1.26
2018-02-14T04:59:53.230Z,-1.29
2018-02-14T05:00:53.255Z,-1.27
2018-02-14T05:01:53.246Z,-1.25
2018-02-14T05:02:53.237Z,-1.25
2018-02-14T05:03:53.241Z,-1.27
2018-02-14T05:04:53.245Z,-1.23
2018-02-14T05:05:53.270Z,-1.26
2018-02-14T05:06:53.283Z,-1.29
2018-02-14T05:07:53.370Z,-1.22
2018-02-14T05:08:53.326Z,-1.19
2018-02-14T05:10:06.358Z,-1.2
2018-02-14T05:10:58.475Z,-1.23
2018-02-14T05:11:58.279Z,-1.25
2018-02-14T05:12:58.283Z,-1.2
2018-02-14T05:14:03.287Z,-1.2
2018-02-14T05:14:59.401Z,-1.2
2018-02-14T05:16:03.321Z,-1.19
2018-02-14T05:17:03.286Z,-1.22
2018-02-14T05:18:08.202Z,-1.29
2018-02-14T05:19:03.281Z,-1.27
2018-02-14T05:19:53.310Z,-1.3
2018-02-14T05:20:53.304Z,-1.32
2018-02-14T05:21:53.324Z,-1.33
2018-02-14T05:22:53.292Z,-1.32
2018-02-14T05:23:53.302Z,-1.29
2018-02-14T05:24:53.309Z,-1.3
2018-02-14T05:25:53.317Z,-1.33
2018-02-14T05:26:53.347Z,-1.32
2018-02-14T05:27:53.316Z,-1.32
2018-02-14T05:28:53.324Z,-1.29
2018-02-14T05:29:53.327Z,-1.33
2018-02-14T05:30:53.793Z,-1.33
2018-02-14T05:31:53.351Z,-1.35
2018-02-14T05:32:53.375Z,-1.35
2018-02-14T05:33:53.345Z,-1.33
2018-02-14T05:34:53.356Z,-1.3
2018-02-14T05:35:53.362Z,-1.27
2018-02-14T05:36:53.356Z,-1.27
2018-02-14T05:37:53.373Z,-1.29
2018-02-14T05:38:53.380Z,-1.29
2018-02-14T05:39:53.363Z,-1.27
2018-02-14T05:40:53.363Z,-1.3
2018-02-14T05:41:53.368Z,-1.3
2018-02-14T05:42:53.371Z,-1.36
2018-02-14T05:43:53.370Z,-1.39
2018-02-14T05:44:53.387Z,-1.37
2018-02-14T05:45:53.387Z,-1.33
2018-02-14T05:46:53.391Z,-1.29
2018-02-14T05:47:53.406Z,-1.27
2018-02-14T05:48:53.402Z,-1.33
2018-02-14T05:49:53.393Z,-1.32
2018-02-14T05:50:53.394Z,-1.3
2018-02-14T05:51:53.385Z,-1.35
2018-02-14T05:52:53.393Z,-1.3
2018-02-14T05:53:53.396Z,-1.36
2018-02-14T05:54:53.421Z,-1.36
2018-02-14T05:55:53.393Z,-1.35
2018-02-14T05:56:53.423Z,-1.32
2018-02-14T05:57:53.416Z,-1.32
2018-02-14T05:58:53.418Z,-1.29
2018-02-14T05:59:53.427Z,-1.33
2018-02-14T06:00:53.420Z,-1.37
2018-02-14T06:01:53.442Z,-1.37
2018-02-14T06:02:53.418Z,-1.41
2018-02-14T06:03:53.426Z,-1.39
2018-02-14T06:04:53.432Z,-1.41
2018-02-14T06:05:53.520Z,-1.41
2018-02-14T06:06:53.463Z,-1.4
2018-02-14T06:07:53.434Z,-1.41
2018-02-14T06:08:53.487Z,-1.39
2018-02-14T06:09:53.442Z,-1.39
2018-02-14T06:10:53.447Z,-1.41
2018-02-14T06:11:53.445Z,-1.44
2018-02-14T06:12:53.467Z,-1.41
2018-02-14T06:13:53.482Z,-1.4
2018-02-14T06:14:53.461Z,-1.41
2018-02-14T06:15:53.460Z,-1.39
2018-02-14T06:16:53.467Z,-1.41
2018-02-14T06:17:53.460Z,-1.37
2018-02-14T06:18:53.502Z,-1.39
2018-02-14T06:19:53.494Z,-1.4
2018-02-14T06:20:53.481Z,-1.41
2018-02-14T06:21:53.550Z,-1.41
2018-02-14T06:22:53.492Z,-1.4
2018-02-14T06:23:53.517Z,-1.41
2018-02-14T06:24:53.493Z,-1.44
2018-02-14T06:25:53.500Z,-1.44
2018-02-14T06:26:53.498Z,-1.43
2018-02-14T06:27:53.569Z,-1.44
2018-02-14T06:28:53.533Z,-1.46
2018-02-14T06:29:53.519Z,-1.44
2018-02-14T06:30:53.525Z,-1.44
2018-02-14T06:31:53.511Z,-1.53
2018-02-14T06:32:53.518Z,-1.5
2018-02-14T06:33:53.546Z,-1.51
2018-02-14T06:34:53.536Z,-1.53
2018-02-14T06:35:53.523Z,-1.54
2018-02-14T06:36:53.533Z,-1.55
2018-02-14T06:37:53.526Z,-1.53
2018-02-14T06:38:53.588Z,-1.54
2018-02-14T06:39:53.535Z,-1.53
2018-02-14T06:40:53.874Z,-1.51
2018-02-14T06:41:53.534Z,-1.5
2018-02-14T06:42:53.539Z,-1.51
2018-02-14T06:43:53.548Z,-1.47
2018-02-14T06:44:53.579Z,-1.46
2018-02-14T06:45:53.577Z,-1.48
2018-02-14T06:46:53.572Z,-1.5
2018-02-14T06:47:53.567Z,-1.51
2018-02-14T06:48:53.553Z,-1.54
2018-02-14T06:49:53.558Z,-1.53
2018-02-14T06:50:53.590Z,-1.61
2018-02-14T06:51:53.596Z,-1.64
2018-02-14T06:52:53.581Z,-1.64
2018-02-14T06:53:53.582Z,-1.68
2018-02-14T06:54:53.584Z,-1.72
2018-02-14T06:55:53.596Z,-1.71
2018-02-14T06:56:53.607Z,-1.71
2018-02-14T06:57:53.607Z,-1.75
2018-02-14T06:58:53.743Z,-1.76
2018-02-14T06:59:53.606Z,-1.74
2018-02-14T07:00:53.638Z,-1.79
2018-02-14T07:01:53.665Z,-1.78
2018-02-14T07:02:53.616Z,-1.74
2018-02-14T07:03:53.621Z,-1.78
2018-02-14T07:04:53.617Z,-1.78
2018-02-14T07:05:53.929Z,-1.76
2018-02-14T07:06:53.627Z,-1.74
2018-02-14T07:07:53.712Z,-1.74
2018-02-14T07:08:53.646Z,-1.71
2018-02-14T07:09:53.646Z,-1.75
2018-02-14T07:10:53.693Z,-1.72
2018-02-14T07:11:53.653Z,-1.72
2018-02-14T07:12:53.661Z,-1.74
2018-02-14T07:13:53.677Z,-1.74
2018-02-14T07:14:53.658Z,-1.76
2018-02-14T07:15:53.683Z,-1.75
2018-02-14T07:16:53.690Z,-1.72
2018-02-14T07:17:53.664Z,-1.75
2018-02-14T07:18:53.660Z,-1.74
2018-02-14T07:19:53.668Z,-1.7
2018-02-14T07:20:53.684Z,-1.7
2018-02-14T07:21:53.700Z,-1.65
2018-02-14T07:22:54.058Z,-1.68
2018-02-14T07:23:53.689Z,-1.64
2018-02-14T07:24:53.690Z,-1.67
2018-02-14T07:25:53.704Z,-1.67
2018-02-14T07:26:53.697Z,-1.63
2018-02-14T07:27:53.734Z,-1.6
2018-02-14T07:28:53.704Z,-1.54
2018-02-14T07:29:53.702Z,-1.53
2018-02-14T07:30:53.709Z,-1.51
2018-02-14T07:31:53.736Z,-1.46
2018-02-14T07:32:53.738Z,-1.48
2018-02-14T07:33:53.884Z,-1.47
2018-02-14T07:34:53.730Z,-1.46
2018-02-14T07:35:53.732Z,-1.43
2018-02-14T07:36:53.740Z,-1.4
2018-02-14T07:37:53.729Z,-1.39
2018-02-14T07:38:53.760Z,-1.37
2018-02-14T07:39:53.769Z,-1.36
2018-02-14T07:40:53.745Z,-1.4
2018-02-14T07:41:53.754Z,-1.39
2018-02-14T07:42:53.739Z,-1.35
2018-02-14T07:43:53.770Z,-1.33
2018-02-14T07:44:53.762Z,-1.35
2018-02-14T07:45:53.761Z,-1.33
2018-02-14T07:46:53.767Z,-1.29
2018-02-14T07:47:53.769Z,-1.26
2018-02-14T07:48:53.782Z,-1.27
2018-02-14T07:49:53.794Z,-1.26
2018-02-14T07:50:53.769Z,-1.25
2018-02-14T07:51:53.780Z,-1.26
2018-02-14T07:52:53.783Z,-1.26
2018-02-14T07:53:53.794Z,-1.27
2018-02-14T07:56:58.818Z,-1.22
2018-02-14T07:57:53.802Z,-1.23
2018-02-14T07:58:53.834Z,-1.2
2018-02-14T07:59:53.838Z,-1.18
2018-02-14T08:00:53.815Z,-1.19
2018-02-14T08:01:53.803Z,-1.19
2018-02-14T08:02:53.809Z,-1.18
2018-02-14T08:03:53.840Z,-1.15
2018-02-14T08:04:54.373Z,-1.12
2018-02-14T08:05:53.834Z,-1.11
2018-02-14T08:06:53.837Z,-1.09
2018-02-14T08:07:53.868Z,-1.07
2018-02-14T08:08:53.832Z,-1.02
2018-02-14T08:09:54.166Z,-0.99
2018-02-14T08:10:53.840Z,-0.93
2018-02-14T08:11:53.843Z,-0.95
2018-02-14T08:12:53.850Z,-0.91
2018-02-14T08:13:53.841Z,-0.88
2018-02-14T08:14:53.870Z,-0.85
2018-02-14T08:15:53.859Z,-0.82
2018-02-14T08:16:53.846Z,-0.88
2018-02-14T08:17:53.850Z,-0.84
2018-02-14T08:18:53.857Z,-0.81
2018-02-14T08:19:53.864Z,-0.77
2018-02-14T08:20:54.152Z,-0.74
2018-02-14T08:21:53.866Z,-0.73
2018-02-14T08:22:53.858Z,-0.7
2018-02-14T08:23:53.868Z,-0.7
2018-02-14T08:24:53.865Z,-0.71
2018-02-14T08:25:53.890Z,-0.68
2018-02-14T08:26:53.905Z,-0.61
2018-02-14T08:27:53.873Z,-0.61
2018-02-14T08:28:53.951Z,-0.61
2018-02-14T08:29:53.875Z,-0.57
2018-02-14T08:30:53.883Z,-0.5
2018-02-14T08:31:53.928Z,-0.53
2018-02-14T08:32:53.883Z,-0.46
2018-02-14T08:33:53.880Z,-0.46
2018-02-14T08:34:53.887Z,-0.42
2018-02-14T08:35:53.887Z,-0.43
2018-02-14T08:36:53.912Z,-0.36
2018-02-14T08:37:53.932Z,-0.36
2018-02-14T08:38:53.897Z,-0.32
2018-02-14T08:39:53.894Z,-0.29
2018-02-14T08:40:53.904Z,-0.23
2018-02-14T08:41:53.909Z,-0.22
2018-02-14T08:42:54.063Z,-0.21
2018-02-14T08:43:53.903Z,-0.21
2018-02-14T08:44:53.916Z,-0.18
2018-02-14T08:45:53.920Z,-0.17
2018-02-14T08:46:53.940Z,-0.12
2018-02-14T08:47:54.119Z,-0.04
2018-02-14T08:48:53.926Z,-0.05
2018-02-14T08:49:53.925Z,-0.07
2018-02-14T08:50:53.927Z,-0.08
2018-02-14T08:51:53.922Z,-0.05
2018-02-14T08:52:53.949Z,-0.04
2018-02-14T08:53:53.963Z,-0.04
2018-02-14T08:54:53.944Z,-0.04
2018-02-14T08:55:53.939Z,-0.01
2018-02-14T08:56:53.941Z,0.02
2018-02-14T08:57:53.976Z,0.05
2018-02-14T08:58:53.960Z,0.06
2018-02-14T08:59:53.942Z,0.08
2018-02-14T09:00:53.949Z,0.08
2018-02-14T09:01:53.956Z,0.09
2018-02-14T09:02:54.085Z,0.09
2018-02-14T09:03:53.967Z,0.15
2018-02-14T09:04:53.964Z,0.16
2018-02-14T09:05:53.980Z,0.19
2018-02-14T09:06:53.962Z,0.2
2018-02-14T09:07:53.956Z,0.26
2018-02-14T09:08:53.987Z,0.37
2018-02-14T09:09:53.978Z,0.37
2018-02-14T09:10:53.981Z,0.4
2018-02-14T09:11:53.985Z,0.5
2018-02-14T09:12:53.984Z,0.43
2018-02-14T09:13:54.034Z,0.48
2018-02-14T09:14:53.991Z,0.51
2018-02-14T09:15:53.990Z,0.51
2018-02-14T09:16:54.051Z,0.53
2018-02-14T09:17:54.007Z,0.58
2018-02-14T09:18:54.027Z,0.63
2018-02-14T09:19:54.040Z,0.63
2018-02-14T09:20:54.012Z,0.69
2018-02-14T09:21:54.030Z,0.65
2018-02-14T09:22:54.020Z,0.68
2018-02-14T09:23:54.036Z,0.72
2018-02-14T09:24:54.052Z,0.74
2018-02-14T09:25:54.480Z,0.79
2018-02-14T09:26:54.043Z,0.81
2018-02-14T09:27:54.050Z,0.85
2018-02-14T09:28:54.038Z,0.86
2018-02-14T09:29:54.070Z,0.86
2018-02-14T09:30:54.050Z,0.85
2018-02-14T09:31:54.076Z,0.91
2018-02-14T09:32:54.059Z,0.93
2018-02-14T09:33:54.061Z,0.96
2018-02-14T09:34:54.347Z,1.04
2018-02-14T09:35:54.072Z,1.06
2018-02-14T09:36:54.083Z,1.03
2018-02-14T09:37:54.077Z,1.04
2018-02-14T09:38:54.097Z,1.04
2018-02-14T09:39:54.084Z,1.07
2018-02-14T09:40:54.089Z,1.11
2018-02-14T09:41:54.079Z,1.15
2018-02-14T09:42:54.086Z,1.23
2018-02-14T09:43:54.083Z,1.24
2018-02-14T09:44:54.098Z,1.31
2018-02-14T09:45:54.094Z,1.31
2018-02-14T09:46:54.080Z,1.33
2018-02-14T09:47:54.082Z,1.38
2018-02-14T09:48:54.088Z,1.43
2018-02-14T09:49:54.095Z,1.43
2018-02-14T09:50:54.093Z,1.45
2018-02-14T09:51:54.132Z,1.51
2018-02-14T09:52:54.112Z,1.54
2018-02-14T09:53:54.116Z,1.57
2018-02-14T09:54:54.154Z,1.58
2018-02-14T09:55:54.135Z,1.64
2018-02-14T09:56:54.136Z,1.65
2018-02-14T09:57:54.128Z,1.69
2018-02-14T09:58:54.151Z,1.72
2018-02-14T09:59:54.175Z,1.73
2018-02-14T10:00:54.185Z,1.72
2018-02-14T10:01:54.154Z,1.75
2018-02-14T10:02:54.154Z,1.75
2018-02-14T10:03:54.193Z,1.82
2018-02-14T10:04:54.166Z,1.86
2018-02-14T10:05:54.158Z,1.89
2018-02-14T10:06:54.166Z,1.86
2018-02-14T10:07:54.171Z,1.92
2018-02-14T10:08:54.196Z,2
2018-02-14T10:09:54.204Z,2.01
2018-02-14T10:10:54.183Z,2.01
2018-02-14T10:11:54.206Z,2.04
2018-02-14T10:12:54.192Z,2.06
2018-02-14T10:13:54.231Z,2.1
2018-02-14T10:14:54.239Z,2.14
2018-02-14T10:15:54.202Z,2.2
2018-02-14T10:16:54.220Z,2.21
2018-02-14T10:17:54.230Z,2.21
2018-02-14T10:18:54.244Z,2.28
2018-02-14T10:19:54.217Z,2.3
2018-02-14T10:20:54.226Z,2.36
2018-02-14T10:21:54.229Z,2.37
2018-02-14T10:22:54.238Z,2.4
2018-02-14T10:23:54.266Z,2.45
2018-02-14T10:24:54.300Z,2.49
2018-02-14T10:25:54.249Z,2.52
2018-02-14T10:26:54.257Z,2.56
2018-02-14T10:27:54.257Z,2.65
2018-02-14T10:28:54.310Z,2.71
2018-02-14T10:29:54.274Z,2.76
2018-02-14T10:30:54.269Z,2.8
2018-02-14T10:31:54.274Z,2.84
2018-02-14T10:32:54.276Z,2.87
2018-02-14T10:33:54.291Z,2.8
2018-02-14T10:34:54.296Z,2.83
2018-02-14T10:35:54.302Z,2.84
2018-02-14T10:36:54.263Z,2.83
2018-02-14T10:37:54.267Z,2.86
2018-02-14T10:38:54.292Z,2.87
2018-02-14T10:39:54.307Z,2.96
2018-02-14T10:40:54.278Z,3.03
2018-02-14T10:41:54.302Z,3.07
2018-02-14T10:42:54.293Z,3.04
2018-02-14T10:43:54.336Z,3.06
2018-02-14T10:44:54.321Z,3.06
2018-02-14T10:45:54.336Z,3
2018-02-14T10:46:54.307Z,3
2018-02-14T10:47:54.324Z,3.04
2018-02-14T10:48:54.316Z,3.07
2018-02-14T10:49:54.327Z,3.07
2018-02-14T10:50:54.665Z,3.08
2018-02-14T10:51:54.383Z,3.14
2018-02-14T10:52:54.432Z,3.1
2018-02-14T10:53:54.329Z,3.15
2018-02-14T10:54:54.333Z,3.25
2018-02-14T10:55:54.359Z,3.17
2018-02-14T10:56:54.588Z,3.2
2018-02-14T10:57:54.351Z,3.28
2018-02-14T10:58:54.357Z,3.32
2018-02-14T10:59:54.416Z,3.28
2018-02-14T11:00:57.010Z,3.29
2018-02-14T11:01:55.608Z,3.25
2018-02-14T11:02:54.479Z,3.29
2018-02-14T11:03:54.427Z,3.35
2018-02-14T11:04:54.368Z,3.38
2018-02-14T11:05:54.372Z,3.42
2018-02-14T11:06:54.375Z,3.51
2018-02-14T11:07:54.366Z,3.56
2018-02-14T11:08:54.362Z,3.62
2018-02-14T11:09:54.397Z,3.65
2018-02-14T11:10:54.388Z,3.59
2018-02-14T11:11:54.428Z,3.56
2018-02-14T11:12:54.384Z,3.58
2018-02-14T11:13:54.397Z,3.62
2018-02-14T11:14:54.398Z,3.65
2018-02-14T11:15:54.388Z,3.73
2018-02-14T11:16:54.410Z,3.73
2018-02-14T11:17:54.380Z,3.74
2018-02-14T11:18:54.392Z,3.8
2018-02-14T11:19:54.388Z,3.84
2018-02-14T11:20:54.393Z,3.91
2018-02-14T11:21:54.411Z,3.93
2018-02-14T11:22:54.395Z,3.97
2018-02-14T11:23:54.421Z,3.93
2018-02-14T11:24:54.410Z,3.98
2018-02-14T11:25:54.411Z,4.05
2018-02-14T11:26:54.419Z,4.08
2018-02-14T11:27:54.400Z,4.08
2018-02-14T11:28:54.422Z,4.14
2018-02-14T11:45:29.568Z,4.56
2018-02-14T11:46:29.439Z,4.49
2018-02-14T11:47:29.441Z,4.56
2018-02-14T11:48:29.457Z,4.65
2018-02-14T11:49:29.450Z,4.73
2018-02-14T11:50:29.440Z,4.79
2018-02-14T11:51:29.430Z,4.76
2018-02-14T11:52:29.433Z,4.79
2018-02-14T11:53:29.465Z,4.74
2018-02-14T11:54:29.472Z,4.79
2018-02-14T11:55:29.446Z,4.81
2018-02-14T11:56:33.071Z,4.88
2018-02-14T11:57:33.101Z,4.9
2018-02-14T11:58:34.914Z,4.93
2018-02-14T11:59:35.724Z,5.02
2018-02-14T12:00:34.100Z,5.1
2018-02-14T12:01:35.539Z,5.14
2018-02-14T12:02:33.893Z,5.08
2018-02-14T12:03:33.126Z,5.11
2018-02-14T12:04:33.117Z,5.14
2018-02-14T12:05:33.125Z,5.23
2018-02-14T12:06:33.132Z,5.26
2018-02-14T12:07:33.144Z,5.29
2018-02-14T12:08:33.134Z,5.3
2018-02-14T12:09:33.139Z,5.3
2018-02-14T12:10:33.149Z,5.26
2018-02-14T12:11:33.154Z,5.32
2018-02-14T12:12:33.147Z,5.45
2018-02-14T12:13:33.148Z,5.49
2018-02-14T12:14:33.165Z,5.5
2018-02-14T12:15:33.176Z,5.53
2018-02-14T12:16:33.171Z,5.57
2018-02-14T12:17:33.171Z,5.54
2018-02-14T12:18:33.160Z,5.57
2018-02-14T12:19:33.169Z,5.63
2018-02-14T12:20:33.183Z,5.66
2018-02-14T12:21:33.171Z,5.56
2018-02-14T12:31:11.945Z,5.57
2018-02-14T12:32:11.920Z,5.54
2018-02-14T12:33:12.078Z,5.53
2018-02-14T12:34:11.899Z,5.51
2018-02-14T12:35:11.929Z,5.57
2018-02-14T12:38:24.103Z,5.6
2018-02-14T12:39:12.090Z,5.57
2018-02-14T12:40:12.112Z,5.62
2018-02-14T12:41:12.151Z,5.64
2018-02-14T12:42:12.233Z,5.71
2018-02-14T12:43:12.129Z,5.71
2018-02-14T12:44:12.040Z,5.77
2018-02-14T12:45:12.152Z,5.74
2018-02-14T12:46:12.121Z,5.66
2018-02-14T12:47:12.129Z,5.6
2018-02-14T12:48:12.143Z,5.69
2018-02-14T12:49:12.108Z,5.78
2018-02-14T12:50:12.102Z,5.75
2018-02-14T12:51:12.119Z,5.78
2018-02-14T12:52:12.155Z,5.78
2018-02-14T12:53:12.394Z,5.8
2018-02-14T12:54:12.145Z,5.78
2018-02-14T12:55:12.123Z,5.77
2018-02-14T12:56:12.133Z,5.77
2018-02-14T12:57:12.219Z,5.83
2018-02-14T12:58:12.130Z,5.9
2018-02-14T12:59:12.134Z,5.88
2018-02-14T13:00:12.244Z,5.97
2018-02-14T13:01:12.159Z,5.88
2018-02-14T13:02:12.315Z,5.87
2018-02-14T13:03:12.155Z,5.85
2018-02-14T13:04:12.158Z,5.91
2018-02-14T13:05:12.153Z,5.91
2018-02-14T13:06:12.155Z,5.94
2018-02-14T13:07:12.357Z,5.95
2018-02-14T13:08:12.178Z,5.94
2018-02-14T13:09:12.159Z,5.95
2018-02-14T13:10:12.156Z,6
2018-02-14T13:11:12.221Z,6
2018-02-14T13:12:12.170Z,6
2018-02-14T13:13:12.169Z,5.97
2018-02-14T13:14:12.170Z,5.88
2018-02-14T13:15:12.339Z,6
2018-02-14T13:16:12.170Z,5.97
2018-02-14T13:17:12.175Z,5.95
2018-02-14T13:18:12.182Z,5.91
2018-02-14T13:19:12.189Z,5.91
2018-02-14T13:20:12.247Z,5.9
2018-02-14T13:21:12.211Z,5.85
2018-02-14T13:22:12.183Z,5.81
2018-02-14T13:23:12.195Z,5.85
2018-02-14T13:24:12.220Z,5.9
2018-02-14T13:25:12.222Z,5.91
2018-02-14T13:26:12.254Z,5.9
2018-02-14T13:27:12.223Z,5.88
2018-02-14T13:28:12.236Z,5.91
2018-02-14T13:29:12.244Z,5.9
2018-02-14T13:30:12.367Z,5.92
2018-02-14T13:31:12.242Z,5.94
2018-02-14T13:32:12.228Z,5.92
2018-02-14T13:33:12.235Z,5.97
2018-02-14T13:34:12.237Z,5.87
2018-02-14T13:35:12.255Z,5.9